Time;durP1;ratioP1;P1;durP2;ratioP2;P2;SDS_P1;SDS_P2;PMS_P1;PMS_P2;Temp;Humidity;BMP_temperature;BMP_pressure;BME280_temperature;BME280_humidity;BME280_pressure;Samples;Min_cycle;Max_cycle;Signal;HPM_P1;HPM_P2
2020/12/26 00:00:56;0.00;0.00;0.62;0.00;0.00;0.62;1.80;1.40;;;21.40;29.30;;;;;;2238160;62;20427;-60
2020/12/26 00:03:40;0.00;0.00;0.62;0.00;0.00;0.62;2.30;1.70;;;21.40;29.30;;;;;;2238243;62;20409;-59
2020/12/26 00:06:25;0.00;0.00;0.62;0.00;0.00;0.62;1.90;1.40;;;21.40;29.30;;;;;;2237788;62;20407;-62
2020/12/26 00:09:09;0.00;0.00;0.62;0.00;0.00;0.62;2.07;1.60;;;21.40;29.30;;;;;;2238040;62;20387;-64
2020/12/26 00:11:55;0.00;0.00;0.62;0.00;0.00;0.62;2.10;1.40;;;21.40;29.30;;;;;;2238287;62;20469;-63
2020/12/26 00:14:39;0.00;0.00;0.62;0.00;0.00;0.62;1.40;1.20;;;21.40;29.30;;;;;;2237766;62;20412;-63
2020/12/26 00:17:24;0.00;0.00;0.62;0.00;0.00;0.62;1.60;1.40;;;21.40;29.40;;;;;;2238228;62;20416;-60
2020/12/26 00:20:09;0.00;0.00;0.62;0.00;0.00;0.62;1.73;1.10;;;21.40;29.40;;;;;;2237976;62;20383;-63
2020/12/26 00:22:53;0.00;0.00;0.62;0.00;0.00;0.62;2.20;1.50;;;21.40;29.40;;;;;;2238122;62;20719;-63
2020/12/26 00:25:40;0.00;0.00;0.62;0.00;0.00;0.62;1.50;1.20;;;21.40;29.40;;;;;;2238942;62;20359;-62
2020/12/26 00:28:26;0.00;0.00;0.62;0.00;0.00;0.62;1.73;1.20;;;21.40;29.40;;;;;;2238350;62;20360;-65
2020/12/26 00:31:13;0.00;0.00;0.62;0.00;0.00;0.62;2.40;1.80;;;21.40;29.40;;;;;;2238731;62;20371;-62
2020/12/26 00:33:57;0.00;0.00;0.62;0.00;0.00;0.62;2.03;1.83;;;21.40;29.40;;;;;;2238979;62;20410;-60
2020/12/26 00:36:42;0.00;0.00;0.62;0.00;0.00;0.62;2.30;1.60;;;21.40;29.40;;;;;;2238102;62;20387;-62
2020/12/26 00:39:27;0.00;0.00;0.62;0.00;0.00;0.62;2.73;1.57;;;21.40;29.40;;;;;;2238607;62;20379;-61
2020/12/26 00:42:12;0.00;0.00;0.62;0.00;0.00;0.62;2.27;1.67;;;21.40;29.40;;;;;;2238370;62;20367;-63
2020/12/26 00:44:58;0.00;0.00;0.62;0.00;0.00;0.62;1.63;1.30;;;21.40;29.40;;;;;;2238236;62;20787;-63
2020/12/26 00:47:43;0.00;0.00;0.62;0.00;0.00;0.62;1.83;1.40;;;21.40;29.50;;;;;;2238738;62;20371;-64
2020/12/26 00:50:28;0.00;0.00;0.62;0.00;0.00;0.62;2.63;1.70;;;21.40;29.50;;;;;;2237822;62;20811;-62
2020/12/26 00:53:13;0.00;0.00;0.62;0.00;0.00;0.62;1.50;1.20;;;21.40;29.60;;;;;;2238328;62;20367;-65
2020/12/26 00:55:58;0.00;0.00;0.62;0.00;0.00;0.62;2.60;1.67;;;21.40;29.60;;;;;;2238087;62;20427;-65
2020/12/26 00:58:43;0.00;0.00;0.62;0.00;0.00;0.62;1.30;1.10;;;21.40;29.60;;;;;;2237405;62;20416;-65
2020/12/26 01:01:28;0.00;0.00;0.62;0.00;0.00;0.62;2.00;1.53;;;21.40;29.70;;;;;;2238210;62;20372;-62
2020/12/26 01:04:22;0.00;0.00;0.62;0.00;0.00;0.62;1.80;1.30;;;21.40;29.70;;;;;;2238149;62;20591;-65
2020/12/26 01:07:06;0.00;0.00;0.62;0.00;0.00;0.62;3.40;1.47;;;21.40;29.70;;;;;;2237987;62;20404;-66
2020/12/26 01:09:51;0.00;0.00;0.62;0.00;0.00;0.62;1.40;1.10;;;21.40;29.70;;;;;;2238472;62;20415;-64
2020/12/26 01:12:36;0.00;0.00;0.62;0.00;0.00;0.62;1.93;1.50;;;21.40;29.70;;;;;;2237914;62;20367;-62
2020/12/26 01:15:21;0.00;0.00;0.62;0.00;0.00;0.62;2.07;1.87;;;21.40;29.70;;;;;;2238522;62;20411;-62
2020/12/26 01:18:06;0.00;0.00;0.62;0.00;0.00;0.62;1.60;1.43;;;21.40;29.70;;;;;;2238361;62;20364;-62
2020/12/26 01:20:52;0.00;0.00;0.62;0.00;0.00;0.62;3.00;1.20;;;21.40;29.70;;;;;;2237825;62;20386;-63
2020/12/26 01:23:41;0.00;0.00;0.62;0.00;0.00;0.62;2.83;1.30;;;21.40;29.60;;;;;;2238590;62;20716;-63
2020/12/26 01:26:26;0.00;0.00;0.62;0.00;0.00;0.62;2.60;1.20;;;21.40;29.50;;;;;;2238472;62;20367;-63
2020/12/26 01:29:10;0.00;0.00;0.62;0.00;0.00;0.62;1.67;1.13;;;21.40;29.50;;;;;;2238078;62;20467;-61
2020/12/26 01:31:55;0.00;0.00;0.62;0.00;0.00;0.62;1.87;1.43;;;21.40;29.50;;;;;;2238485;62;20367;-61
2020/12/26 01:34:40;0.00;0.00;0.62;0.00;0.00;0.62;2.50;1.53;;;21.40;29.40;;;;;;2237467;62;20363;-62
2020/12/26 01:37:25;0.00;0.00;0.62;0.00;0.00;0.62;1.87;1.17;;;21.40;29.40;;;;;;2238438;62;20388;-63
2020/12/26 01:40:10;0.00;0.00;0.62;0.00;0.00;0.62;1.67;1.43;;;21.40;29.30;;;;;;2238199;62;20593;-63
2020/12/26 01:42:57;0.00;0.00;0.62;0.00;0.00;0.62;1.83;1.23;;;21.40;29.30;;;;;;2235807;62;20452;-63
2020/12/26 01:45:42;0.00;0.00;0.62;0.00;0.00;0.62;1.50;1.30;;;21.40;29.30;;;;;;2231809;62;20661;-64
2020/12/26 01:48:27;0.00;0.00;0.62;0.00;0.00;0.62;2.10;1.40;;;21.40;29.30;;;;;;2233658;62;20724;-65
2020/12/26 01:51:12;0.00;0.00;0.62;0.00;0.00;0.62;2.20;2.00;;;21.40;29.30;;;;;;2233190;62;20426;-67
2020/12/26 01:54:00;0.00;0.00;0.62;0.00;0.00;0.62;2.20;2.00;;;21.40;29.00;;;;;;2230574;62;20370;-68
2020/12/26 01:56:47;0.00;0.00;0.62;0.00;0.00;0.62;4.70;2.57;;;21.40;28.70;;;;;;2229802;62;20401;-66
2020/12/26 01:59:31;0.00;0.00;0.62;0.00;0.00;0.62;4.03;2.90;;;21.40;28.40;;;;;;2230766;62;20393;-68
2020/12/26 02:02:16;0.00;0.00;0.62;0.00;0.00;0.62;7.50;3.07;;;21.30;28.10;;;;;;2234389;62;20425;-67
2020/12/26 02:05:00;0.00;0.00;0.62;0.00;0.00;0.62;3.27;2.70;;;21.30;27.80;;;;;;2233798;62;20381;-67
2020/12/26 02:07:47;0.00;0.00;0.62;0.00;0.00;0.62;4.23;3.00;;;21.20;27.70;;;;;;2234434;62;20365;-67
2020/12/26 02:10:33;0.00;0.00;0.62;0.00;0.00;0.62;3.13;2.83;;;21.20;27.90;;;;;;2234363;62;20389;-67
2020/12/26 02:13:18;0.00;0.00;0.62;0.00;0.00;0.62;4.77;3.30;;;21.10;27.80;;;;;;2233824;62;20369;-66
2020/12/26 02:16:07;0.00;0.00;0.62;0.00;0.00;0.62;4.80;2.70;;;21.10;27.80;;;;;;2234259;62;20414;-66
2020/12/26 02:18:54;0.00;0.00;0.62;0.00;0.00;0.62;3.27;2.87;;;21.10;27.90;;;;;;2543168;46;20437;-67
2020/12/26 02:21:39;0.00;0.00;0.62;0.00;0.00;0.62;4.57;2.80;;;21.00;27.80;;;;;;2230427;62;20365;-68
2020/12/26 02:24:25;0.00;0.00;0.62;0.00;0.00;0.62;3.13;2.40;;;20.90;27.80;;;;;;2230455;62;20370;-66
2020/12/26 02:27:10;0.00;0.00;0.62;0.00;0.00;0.62;4.40;2.60;;;20.90;27.80;;;;;;2229820;62;20483;-66
2020/12/26 02:29:55;0.00;0.00;0.62;0.00;0.00;0.62;3.63;2.07;;;20.90;27.80;;;;;;2230290;62;20410;-68
2020/12/26 02:32:39;0.00;0.00;0.62;0.00;0.00;0.62;4.90;3.37;;;20.90;27.80;;;;;;2230477;62;20631;-68
2020/12/26 02:35:24;0.00;0.00;0.62;0.00;0.00;0.62;4.30;2.50;;;20.80;27.70;;;;;;2229833;62;20366;-69
2020/12/26 02:38:08;0.00;0.00;0.62;0.00;0.00;0.62;5.50;2.90;;;20.80;27.70;;;;;;2230190;62;20382;-68
2020/12/26 02:40:54;0.00;0.00;0.62;0.00;0.00;0.62;4.43;2.97;;;20.70;27.60;;;;;;2229835;62;20389;-66
2020/12/26 02:43:39;0.00;0.00;0.62;0.00;0.00;0.62;3.50;2.60;;;20.70;27.60;;;;;;2230428;62;20442;-68
2020/12/26 02:46:24;0.00;0.00;0.62;0.00;0.00;0.62;3.93;2.63;;;20.70;27.70;;;;;;2230272;62;20361;-67
2020/12/26 02:49:08;0.00;0.00;0.62;0.00;0.00;0.62;4.80;2.70;;;20.60;27.50;;;;;;2229604;62;20390;-67
2020/12/26 02:51:53;0.00;0.00;0.62;0.00;0.00;0.62;3.50;2.60;;;20.60;27.40;;;;;;2232571;62;20437;-66
2020/12/26 02:54:38;0.00;0.00;0.62;0.00;0.00;0.62;6.40;2.70;;;20.60;27.40;;;;;;2234346;62;20372;-68
2020/12/26 02:57:23;0.00;0.00;0.62;0.00;0.00;0.62;3.30;2.00;;;20.50;27.40;;;;;;2233642;62;20384;-68
2020/12/26 03:00:08;0.00;0.00;0.62;0.00;0.00;0.62;3.93;3.20;;;20.50;27.40;;;;;;2234110;62;20409;-68
2020/12/26 03:02:53;0.00;0.00;0.62;0.00;0.00;0.62;3.50;3.03;;;20.50;27.40;;;;;;2234067;62;20413;-66
2020/12/26 03:05:37;0.00;0.00;0.62;0.00;0.00;0.62;3.87;3.47;;;20.40;27.30;;;;;;2234108;62;20421;-67
2020/12/26 03:08:22;0.00;0.00;0.62;0.00;0.00;0.62;4.40;3.77;;;20.40;27.20;;;;;;2234136;62;20405;-66
2020/12/26 03:11:06;0.00;0.00;0.62;0.00;0.00;0.62;4.13;2.70;;;20.40;27.10;;;;;;2233668;62;20388;-67
2020/12/26 03:13:52;0.00;0.00;0.62;0.00;0.00;0.62;3.27;2.97;;;20.30;27.10;;;;;;2234138;62;20421;-68
2020/12/26 03:16:38;0.00;0.00;0.62;0.00;0.00;0.62;4.60;2.70;;;20.30;27.20;;;;;;2233758;62;20523;-66
2020/12/26 03:19:22;0.00;0.00;0.62;0.00;0.00;0.62;2.90;2.60;;;20.30;27.20;;;;;;2233487;62;20643;-66
2020/12/26 03:22:07;0.00;0.00;0.62;0.00;0.00;0.62;2.80;2.43;;;20.20;27.20;;;;;;2234146;62;20368;-68
2020/12/26 03:24:53;0.00;0.00;0.62;0.00;0.00;0.62;4.40;3.10;;;20.20;27.20;;;;;;2234278;62;20449;-66
2020/12/26 03:27:38;0.00;0.00;0.62;0.00;0.00;0.62;3.53;2.83;;;20.20;27.20;;;;;;2233847;62;20432;-66
2020/12/26 03:30:23;0.00;0.00;0.62;0.00;0.00;0.62;3.13;2.83;;;20.20;27.10;;;;;;2234148;62;20388;-67
2020/12/26 03:33:08;0.00;0.00;0.62;0.00;0.00;0.62;4.13;3.10;;;20.10;26.90;;;;;;2233612;62;20377;-66
2020/12/26 03:35:53;0.00;0.00;0.62;0.00;0.00;0.62;7.07;3.40;;;20.10;27.00;;;;;;2234022;62;20416;-67
2020/12/26 03:38:37;0.00;0.00;0.62;0.00;0.00;0.62;5.27;3.63;;;20.10;26.90;;;;;;2234011;62;20360;-66
2020/12/26 03:41:22;0.00;0.00;0.62;0.00;0.00;0.62;6.17;3.87;;;20.00;26.60;;;;;;2233492;62;20405;-68
2020/12/26 03:44:07;0.00;0.00;0.62;0.00;0.00;0.62;2.93;2.40;;;20.00;26.60;;;;;;2234165;62;20712;-66
2020/12/26 03:46:52;0.00;0.00;0.62;0.00;0.00;0.62;4.43;3.67;;;19.90;26.50;;;;;;2234200;62;20363;-69
2020/12/26 03:49:38;0.00;0.00;0.62;0.00;0.00;0.62;4.73;2.77;;;19.90;26.50;;;;;;2233416;62;20392;-67
2020/12/26 03:52:23;0.00;0.00;0.62;0.00;0.00;0.62;3.80;2.87;;;19.80;26.50;;;;;;2230913;62;20385;-67
2020/12/26 03:55:08;0.00;0.00;0.62;0.00;0.00;0.62;4.43;3.10;;;19.80;26.50;;;;;;2229594;62;20366;-66
2020/12/26 03:57:52;0.00;0.00;0.62;0.00;0.00;0.62;4.80;3.33;;;19.70;26.60;;;;;;2230056;62;20389;-66
2020/12/26 04:00:37;0.00;0.00;0.62;0.00;0.00;0.62;3.93;3.53;;;19.70;26.70;;;;;;2230892;62;20425;-67
2020/12/26 04:03:22;0.00;0.00;0.62;0.00;0.00;0.62;5.10;3.93;;;19.70;26.70;;;;;;2230188;62;20369;-68
2020/12/26 04:06:07;0.00;0.00;0.62;0.00;0.00;0.62;6.93;3.50;;;19.60;26.70;;;;;;2230881;62;20374;-68
2020/12/26 04:08:51;0.00;0.00;0.62;0.00;0.00;0.62;6.03;3.37;;;19.60;26.70;;;;;;2230756;62;20445;-67
2020/12/26 04:11:36;0.00;0.00;0.62;0.00;0.00;0.62;4.83;3.13;;;19.60;26.80;;;;;;2230267;62;20396;-67
2020/12/26 04:14:20;0.00;0.00;0.62;0.00;0.00;0.62;3.80;3.33;;;19.50;26.70;;;;;;2230889;62;20365;-67
2020/12/26 04:17:05;0.00;0.00;0.62;0.00;0.00;0.62;4.00;3.63;;;19.50;26.80;;;;;;2230379;62;20397;-67
2020/12/26 04:19:50;0.00;0.00;0.62;0.00;0.00;0.62;5.80;2.50;;;19.50;26.80;;;;;;2230688;62;20442;-67
2020/12/26 04:22:35;0.00;0.00;0.62;0.00;0.00;0.62;3.47;2.90;;;19.50;26.80;;;;;;2230817;62;20370;-67
2020/12/26 04:25:20;0.00;0.00;0.62;0.00;0.00;0.62;4.80;3.43;;;19.40;26.80;;;;;;2230202;62;20368;-67
2020/12/26 04:28:04;0.00;0.00;0.62;0.00;0.00;0.62;4.57;3.20;;;19.40;26.80;;;;;;2230645;62;20729;-67
2020/12/26 04:30:49;0.00;0.00;0.62;0.00;0.00;0.62;4.40;3.00;;;19.40;26.90;;;;;;2230973;62;20384;-67
2020/12/26 04:33:34;0.00;0.00;0.62;0.00;0.00;0.62;4.93;3.50;;;19.40;26.90;;;;;;2230202;62;20386;-67
2020/12/26 04:36:19;0.00;0.00;0.62;0.00;0.00;0.62;3.23;2.80;;;19.40;26.90;;;;;;2230716;62;20433;-68
2020/12/26 04:39:04;0.00;0.00;0.62;0.00;0.00;0.62;4.50;2.60;;;19.30;26.90;;;;;;2230324;62;20377;-67
2020/12/26 04:41:49;0.00;0.00;0.62;0.00;0.00;0.62;3.30;3.00;;;19.30;26.90;;;;;;2230678;62;20401;-67
2020/12/26 04:44:34;0.00;0.00;0.62;0.00;0.00;0.62;7.57;3.50;;;19.30;26.90;;;;;;2230835;62;20377;-68
2020/12/26 04:47:29;0.00;0.00;0.62;0.00;0.00;0.62;2.97;2.77;;;19.30;26.90;;;;;;2229623;62;20369;-67
2020/12/26 04:50:15;0.00;0.00;0.62;0.00;0.00;0.62;3.53;2.83;;;19.30;26.80;;;;;;2230591;62;20456;-68
2020/12/26 04:53:04;0.00;0.00;0.62;0.00;0.00;0.62;5.43;3.70;;;19.30;26.80;;;;;;2547908;46;20368;-66
2020/12/26 04:55:50;0.00;0.00;0.62;0.00;0.00;0.62;4.80;2.63;;;19.20;26.70;;;;;;2230030;62;20584;-68
2020/12/26 04:58:39;0.00;0.00;0.62;0.00;0.00;0.62;3.43;2.90;;;19.20;26.70;;;;;;2230588;62;20373;-66
2020/12/26 05:01:26;0.00;0.00;0.62;0.00;0.00;0.62;3.40;2.30;;;19.20;26.80;;;;;;2230347;62;20766;-66
2020/12/26 05:04:11;0.00;0.00;0.62;0.00;0.00;0.62;2.80;2.47;;;19.20;26.80;;;;;;2230625;62;20388;-66
2020/12/26 05:06:56;0.00;0.00;0.62;0.00;0.00;0.62;3.57;2.70;;;19.20;26.90;;;;;;2230706;62;20365;-66
2020/12/26 05:09:41;0.00;0.00;0.62;0.00;0.00;0.62;4.13;2.57;;;19.10;27.40;;;;;;2229870;62;20462;-67
2020/12/26 05:12:26;0.00;0.00;0.62;0.00;0.00;0.62;2.57;2.37;;;19.10;26.90;;;;;;2230655;62;20373;-67
2020/12/26 05:15:10;0.00;0.00;0.62;0.00;0.00;0.62;4.93;3.43;;;19.10;26.90;;;;;;2230558;62;20370;-67
2020/12/26 05:17:55;0.00;0.00;0.62;0.00;0.00;0.62;3.10;2.50;;;19.10;26.90;;;;;;2230038;62;20634;-68
2020/12/26 05:20:42;0.00;0.00;0.62;0.00;0.00;0.62;3.60;2.83;;;19.10;26.90;;;;;;2230597;62;20421;-68
2020/12/26 05:23:27;0.00;0.00;0.62;0.00;0.00;0.62;2.73;2.53;;;19.10;26.90;;;;;;2230611;62;20445;-66
2020/12/26 05:26:12;0.00;0.00;0.62;0.00;0.00;0.62;4.97;3.30;;;19.10;26.90;;;;;;2230473;62;20373;-68
2020/12/26 05:29:01;0.00;0.00;0.62;0.00;0.00;0.62;4.10;2.70;;;19.10;26.90;;;;;;2232674;62;20369;-66
2020/12/26 05:31:55;0.00;0.00;0.62;0.00;0.00;0.62;5.23;2.80;;;19.00;26.80;;;;;;2230002;62;20409;-68
2020/12/26 05:34:41;0.00;0.00;0.62;0.00;0.00;0.62;4.00;3.10;;;19.00;26.70;;;;;;2230702;62;20380;-66
2020/12/26 05:37:30;0.00;0.00;0.62;0.00;0.00;0.62;4.00;2.60;;;19.00;26.70;;;;;;2230535;62;20432;-68
2020/12/26 05:40:22;0.00;0.00;0.62;0.00;0.00;0.62;3.77;3.00;;;19.00;26.80;;;;;;2229868;62;20385;-67
2020/12/26 05:43:09;0.00;0.00;0.62;0.00;0.00;0.62;3.30;2.80;;;19.00;26.80;;;;;;2230558;62;20373;-66
2020/12/26 05:45:55;0.00;0.00;0.62;0.00;0.00;0.62;3.10;2.30;;;19.00;26.80;;;;;;2230252;62;20377;-65
2020/12/26 05:48:39;0.00;0.00;0.62;0.00;0.00;0.62;3.43;2.70;;;18.90;26.80;;;;;;2230471;62;20366;-67
2020/12/26 05:51:25;0.00;0.00;0.62;0.00;0.00;0.62;3.83;2.90;;;18.90;26.80;;;;;;2231908;62;20388;-68
2020/12/26 05:54:10;0.00;0.00;0.62;0.00;0.00;0.62;3.20;2.30;;;18.90;26.80;;;;;;2233393;62;20372;-68
2020/12/26 05:57:09;0.00;0.00;0.62;0.00;0.00;0.62;4.07;2.40;;;18.90;26.80;;;;;;2234116;62;20780;-68
2020/12/26 05:59:55;0.00;0.00;0.62;0.00;0.00;0.62;3.40;3.03;;;18.90;26.70;;;;;;2234361;62;20388;-69
2020/12/26 06:02:40;0.00;0.00;0.62;0.00;0.00;0.62;3.93;2.97;;;18.90;26.70;;;;;;2234021;62;20440;-66
2020/12/26 06:05:27;0.00;0.00;0.62;0.00;0.00;0.62;4.33;2.53;;;18.80;26.60;;;;;;2234375;62;20453;-66
2020/12/26 06:08:13;0.00;0.00;0.62;0.00;0.00;0.62;5.83;3.30;;;18.80;26.70;;;;;;2233851;62;20480;-66
2020/12/26 06:11:00;0.00;0.00;0.62;0.00;0.00;0.62;3.70;2.50;;;18.80;26.70;;;;;;2234314;62;20392;-68
2020/12/26 06:13:46;0.00;0.00;0.62;0.00;0.00;0.62;4.10;2.60;;;18.80;26.80;;;;;;2234525;62;20377;-68
2020/12/26 06:16:32;0.00;0.00;0.62;0.00;0.00;0.62;2.83;2.30;;;18.80;27.30;;;;;;2233672;62;20396;-67
2020/12/26 06:19:19;0.00;0.00;0.62;0.00;0.00;0.62;2.90;2.60;;;18.80;26.80;;;;;;2234107;62;20449;-66
2020/12/26 06:22:04;0.00;0.00;0.62;0.00;0.00;0.62;3.40;2.37;;;18.70;26.70;;;;;;2234279;62;20368;-67
2020/12/26 06:24:50;0.00;0.00;0.62;0.00;0.00;0.62;2.70;2.50;;;18.70;26.70;;;;;;2233813;62;20421;-65
2020/12/26 06:27:43;0.00;0.00;0.62;0.00;0.00;0.62;3.43;2.67;;;18.70;26.80;;;;;;2234268;62;20584;-67
2020/12/26 06:30:29;0.00;0.00;0.62;0.00;0.00;0.62;4.07;2.80;;;18.70;26.70;;;;;;2233768;62;20377;-66
2020/12/26 06:33:15;0.00;0.00;0.62;0.00;0.00;0.62;5.60;3.23;;;18.70;26.70;;;;;;2234299;62;20393;-65
2020/12/26 06:36:03;0.00;0.00;0.62;0.00;0.00;0.62;4.53;3.20;;;18.60;26.60;;;;;;2234296;62;20380;-67
2020/12/26 06:38:48;0.00;0.00;0.62;0.00;0.00;0.62;4.23;2.90;;;18.60;26.60;;;;;;2233614;62;20656;-66
2020/12/26 06:41:32;0.00;0.00;0.62;0.00;0.00;0.62;2.77;2.10;;;18.60;26.60;;;;;;2234294;62;20384;-66
2020/12/26 06:44:34;0.00;0.00;0.62;0.00;0.00;0.62;5.00;2.40;;;18.60;26.60;;;;;;2234344;62;20392;-69
2020/12/26 06:47:40;0.00;0.00;0.62;0.00;0.00;0.62;2.97;2.40;;;18.60;26.60;;;;;;2233852;62;20397;-65
2020/12/26 06:50:28;0.00;0.00;0.62;0.00;0.00;0.62;3.17;2.60;;;18.50;26.50;;;;;;2234202;62;20423;-68
2020/12/26 06:53:13;0.00;0.00;0.62;0.00;0.00;0.62;4.50;2.80;;;18.50;26.60;;;;;;2458941;54;20366;-67
2020/12/26 06:55:57;0.00;0.00;0.62;0.00;0.00;0.62;3.63;2.90;;;18.50;26.60;;;;;;2230290;62;20366;-66
2020/12/26 06:58:51;0.00;0.00;0.62;0.00;0.00;0.62;3.83;2.23;;;18.50;26.70;;;;;;2230158;62;20729;-68
2020/12/26 07:01:37;0.00;0.00;0.62;0.00;0.00;0.62;4.20;2.60;;;18.40;26.50;;;;;;2229719;62;20411;-67
2020/12/26 07:04:22;0.00;0.00;0.62;0.00;0.00;0.62;3.23;2.57;;;18.40;26.40;;;;;;2230406;62;20369;-66
2020/12/26 07:07:11;0.00;0.00;0.62;0.00;0.00;0.62;4.40;2.30;;;18.40;26.50;;;;;;2230146;62;20389;-66
2020/12/26 07:09:55;0.00;0.00;0.62;0.00;0.00;0.62;2.83;2.23;;;18.40;26.50;;;;;;2230152;62;20393;-66
2020/12/26 07:12:43;0.00;0.00;0.62;0.00;0.00;0.62;2.87;2.10;;;18.40;26.50;;;;;;2230519;62;20629;-66
2020/12/26 07:15:32;0.00;0.00;0.62;0.00;0.00;0.62;4.77;2.93;;;18.30;26.50;;;;;;2229484;62;20366;-66
2020/12/26 07:18:22;0.00;0.00;0.62;0.00;0.00;0.62;3.20;2.00;;;18.30;26.50;;;;;;2230136;62;20407;-67
2020/12/26 07:21:08;0.00;0.00;0.62;0.00;0.00;0.62;4.37;2.33;;;18.30;26.60;;;;;;2230311;62;20402;-67
2020/12/26 07:23:53;0.00;0.00;0.62;0.00;0.00;0.62;3.10;2.70;;;18.30;26.60;;;;;;2229689;62;20354;-66
2020/12/26 07:26:38;0.00;0.00;0.62;0.00;0.00;0.62;3.03;2.57;;;18.30;26.50;;;;;;2230332;62;20442;-66
2020/12/26 07:29:26;0.00;0.00;0.62;0.00;0.00;0.62;3.30;2.20;;;18.20;26.50;;;;;;2229727;62;20413;-66
2020/12/26 07:32:58;0.00;0.00;0.62;0.00;0.00;0.62;3.63;2.00;;;18.20;26.50;;;;;;2230243;62;20399;-66
2020/12/26 07:35:44;0.00;0.00;0.62;0.00;0.00;0.62;3.63;2.27;;;18.20;26.50;;;;;;2230200;62;20373;-66
2020/12/26 07:38:28;0.00;0.00;0.62;0.00;0.00;0.62;2.70;1.83;;;18.20;26.50;;;;;;2229488;62;20401;-66
2020/12/26 07:41:14;0.00;0.00;0.62;0.00;0.00;0.62;3.00;1.97;;;18.20;26.40;;;;;;2230240;62;20369;-66
2020/12/26 07:43:59;0.00;0.00;0.62;0.00;0.00;0.62;3.40;1.60;;;18.20;26.50;;;;;;2230194;62;20483;-66
2020/12/26 07:46:44;0.00;0.00;0.62;0.00;0.00;0.62;2.33;1.90;;;18.20;26.60;;;;;;2229969;62;20369;-66
2020/12/26 07:49:29;0.00;0.00;0.62;0.00;0.00;0.62;2.50;2.03;;;18.10;26.60;;;;;;2230085;62;20405;-66
2020/12/26 07:52:14;0.00;0.00;0.62;0.00;0.00;0.62;3.27;1.90;;;18.20;26.60;;;;;;2232380;62;20388;-67
2020/12/26 07:54:59;0.00;0.00;0.62;0.00;0.00;0.62;2.90;2.30;;;18.10;26.50;;;;;;2234068;62;20372;-67
2020/12/26 07:57:46;0.00;0.00;0.62;0.00;0.00;0.62;3.93;2.20;;;18.10;26.60;;;;;;2234040;62;20797;-65
2020/12/26 08:00:33;0.00;0.00;0.62;0.00;0.00;0.62;3.13;2.30;;;18.10;26.50;;;;;;2233519;62;20389;-68
2020/12/26 08:03:18;0.00;0.00;0.62;0.00;0.00;0.62;4.83;2.20;;;18.10;26.50;;;;;;2234071;62;20365;-66
2020/12/26 08:06:06;0.00;0.00;0.62;0.00;0.00;0.62;3.50;2.33;;;18.10;26.50;;;;;;2234037;62;20765;-66
2020/12/26 08:08:53;0.00;0.00;0.62;0.00;0.00;0.62;2.37;2.00;;;18.10;26.50;;;;;;2233684;62;20365;-68
2020/12/26 08:11:38;0.00;0.00;0.62;0.00;0.00;0.62;4.20;2.87;;;18.10;26.50;;;;;;2234011;62;20425;-66
2020/12/26 08:14:23;0.00;0.00;0.62;0.00;0.00;0.62;3.20;1.77;;;18.10;26.50;;;;;;2233479;62;20368;-66
2020/12/26 08:17:08;0.00;0.00;0.62;0.00;0.00;0.62;3.73;2.20;;;18.10;26.50;;;;;;2233960;62;20408;-66
2020/12/26 08:19:58;0.00;0.00;0.62;0.00;0.00;0.62;3.90;2.70;;;18.10;26.40;;;;;;2233773;62;20424;-67
2020/12/26 08:22:43;0.00;0.00;0.62;0.00;0.00;0.62;2.90;1.73;;;18.00;26.40;;;;;;2233522;62;20417;-68
2020/12/26 08:25:30;0.00;0.00;0.62;0.00;0.00;0.62;2.50;1.97;;;18.00;26.50;;;;;;2234103;62;20393;-66
2020/12/26 08:28:17;0.00;0.00;0.62;0.00;0.00;0.62;3.93;2.40;;;18.00;26.50;;;;;;2233837;62;20439;-66
2020/12/26 08:31:05;0.00;0.00;0.62;0.00;0.00;0.62;2.97;1.87;;;18.10;26.40;;;;;;2233713;62;20776;-67
2020/12/26 08:34:00;0.00;0.00;0.62;0.00;0.00;0.62;3.13;2.00;;;18.00;26.40;;;;;;2233973;62;20467;-65
2020/12/26 08:36:55;0.00;0.00;0.62;0.00;0.00;0.62;2.00;1.70;;;18.00;26.60;;;;;;2233030;62;20397;-66
2020/12/26 08:39:42;0.00;0.00;0.62;0.00;0.00;0.62;2.10;1.60;;;18.00;26.70;;;;;;2233929;62;20769;-68
2020/12/26 08:42:28;0.00;0.00;0.62;0.00;0.00;0.62;3.00;1.97;;;18.00;26.70;;;;;;2233980;62;20371;-66
2020/12/26 08:45:29;0.00;0.00;0.62;0.00;0.00;0.62;3.70;2.43;;;18.00;26.70;;;;;;2233884;62;20372;-66
2020/12/26 08:48:18;0.00;0.00;0.62;0.00;0.00;0.62;1.97;1.43;;;18.00;26.70;;;;;;2234504;62;20381;-67
2020/12/26 08:51:03;0.00;0.00;0.62;0.00;0.00;0.62;1.90;1.60;;;18.00;26.70;;;;;;2234021;62;20404;-67
2020/12/26 08:53:50;0.00;0.00;0.62;0.00;0.00;0.62;2.67;2.10;;;18.00;26.70;;;;;;2236544;62;20413;-67
2020/12/26 08:56:37;0.00;0.00;0.62;0.00;0.00;0.62;2.33;1.80;;;17.90;26.70;;;;;;2234512;62;20616;-65
2020/12/26 08:59:29;0.00;0.00;0.62;0.00;0.00;0.62;4.70;2.80;;;18.00;26.80;;;;;;2233814;62;20473;-64
2020/12/26 09:02:14;0.00;0.00;0.62;0.00;0.00;0.62;3.83;2.10;;;18.00;26.70;;;;;;2234606;62;20590;-65
2020/12/26 09:05:19;0.00;0.00;0.62;0.00;0.00;0.62;3.90;1.80;;;18.00;26.40;;;;;;2234663;62;20372;-64
2020/12/26 09:08:06;0.00;0.00;0.62;0.00;0.00;0.62;2.37;1.90;;;17.90;26.40;;;;;;2234122;62;20384;-62
2020/12/26 09:11:01;0.00;0.00;0.62;0.00;0.00;0.62;3.40;2.00;;;17.90;26.60;;;;;;2233171;62;20409;-66
2020/12/26 09:13:48;0.00;0.00;0.62;0.00;0.00;0.62;3.10;1.93;;;17.90;26.70;;;;;;2233731;62;20414;-61
2020/12/26 09:16:33;0.00;0.00;0.62;0.00;0.00;0.62;2.87;1.70;;;17.90;26.70;;;;;;2234095;62;20392;-64
2020/12/26 09:19:18;0.00;0.00;0.62;0.00;0.00;0.62;1.90;1.70;;;17.90;26.80;;;;;;2233938;62;20874;-63
2020/12/26 09:22:10;0.00;0.00;0.62;0.00;0.00;0.62;2.97;1.77;;;17.90;26.90;;;;;;2234015;62;20361;-65
2020/12/26 09:24:55;0.00;0.00;0.62;0.00;0.00;0.62;2.57;1.40;;;17.90;27.40;;;;;;2234503;62;20373;-63
2020/12/26 09:27:39;0.00;0.00;0.62;0.00;0.00;0.62;3.20;1.63;;;18.00;27.00;;;;;;2234372;62;20356;-66
2020/12/26 09:30:24;0.00;0.00;0.62;0.00;0.00;0.62;1.50;1.20;;;18.00;27.10;;;;;;2234275;62;20809;-65
2020/12/26 09:33:09;0.00;0.00;0.62;0.00;0.00;0.62;1.90;1.07;;;18.00;27.20;;;;;;2234500;62;20364;-64
2020/12/26 09:36:03;0.00;0.00;0.62;0.00;0.00;0.62;2.60;1.20;;;18.10;27.30;;;;;;2234002;62;20769;-64
2020/12/26 09:38:50;0.00;0.00;0.62;0.00;0.00;0.62;2.20;1.30;;;18.10;27.30;;;;;;2233879;62;20709;-62
2020/12/26 09:41:43;0.00;0.00;0.62;0.00;0.00;0.62;2.53;1.47;;;18.20;27.90;;;;;;2234521;62;20453;-66
2020/12/26 09:44:28;0.00;0.00;0.62;0.00;0.00;0.62;1.73;1.10;;;18.20;27.40;;;;;;2233973;62;20633;-63
2020/12/26 09:47:12;0.00;0.00;0.62;0.00;0.00;0.62;2.63;1.10;;;18.30;27.50;;;;;;2234511;62;20390;-64
2020/12/26 09:49:57;0.00;0.00;0.62;0.00;0.00;0.62;1.30;1.00;;;18.30;27.50;;;;;;2233697;62;20412;-62
2020/12/26 09:52:42;0.00;0.00;0.62;0.00;0.00;0.62;1.80;1.10;;;18.30;27.50;;;;;;2230754;62;20814;-63
2020/12/26 09:55:28;0.00;0.00;0.62;0.00;0.00;0.62;1.87;1.00;;;18.40;27.60;;;;;;2230350;62;20493;-61
2020/12/26 09:58:13;0.00;0.00;0.62;0.00;0.00;0.62;1.50;0.97;;;18.50;27.70;;;;;;2229741;62;20424;-62
2020/12/26 10:00:57;0.00;0.00;0.62;0.00;0.00;0.62;2.13;1.37;;;18.50;27.60;;;;;;2230063;62;20389;-61
2020/12/26 10:03:43;0.00;0.00;0.62;0.00;0.00;0.62;1.40;1.03;;;18.50;27.60;;;;;;2230530;62;20373;-62
2020/12/26 10:06:28;0.00;0.00;0.62;0.00;0.00;0.62;1.87;1.30;;;18.60;27.70;;;;;;2229935;62;20414;-62
2020/12/26 10:09:12;0.00;0.00;0.62;0.00;0.00;0.62;2.80;1.40;;;18.60;27.70;;;;;;2230348;62;20385;-63
2020/12/26 10:11:58;0.00;0.00;0.62;0.00;0.00;0.62;3.00;1.87;;;18.70;27.70;;;;;;2230554;62;20374;-64
2020/12/26 10:14:42;0.00;0.00;0.62;0.00;0.00;0.62;2.70;1.50;;;18.70;27.70;;;;;;2230182;62;20373;-64
2020/12/26 10:17:27;0.00;0.00;0.62;0.00;0.00;0.62;2.07;1.40;;;18.70;27.70;;;;;;2230450;62;20789;-62
2020/12/26 10:20:11;0.00;0.00;0.62;0.00;0.00;0.62;2.23;1.60;;;18.70;27.70;;;;;;2229685;62;20397;-63
2020/12/26 10:22:56;0.00;0.00;0.62;0.00;0.00;0.62;1.47;1.20;;;18.80;27.80;;;;;;2230487;62;20449;-63
2020/12/26 10:25:41;0.00;0.00;0.62;0.00;0.00;0.62;2.23;1.70;;;18.80;27.70;;;;;;2230483;62;20369;-62
2020/12/26 10:28:26;0.00;0.00;0.62;0.00;0.00;0.62;3.93;1.63;;;18.80;28.30;;;;;;2229838;62;20369;-61
2020/12/26 10:31:10;0.00;0.00;0.62;0.00;0.00;0.62;2.93;1.43;;;18.90;27.80;;;;;;2230429;62;20397;-62
2020/12/26 10:33:55;0.00;0.00;0.62;0.00;0.00;0.62;2.67;1.57;;;18.90;27.70;;;;;;2230453;62;20369;-62
2020/12/26 10:36:43;0.00;0.00;0.62;0.00;0.00;0.62;2.80;1.50;;;18.90;27.70;;;;;;2229808;62;20392;-61
2020/12/26 10:39:28;0.00;0.00;0.62;0.00;0.00;0.62;1.97;1.40;;;18.90;27.70;;;;;;2230191;62;20385;-61
2020/12/26 10:42:12;0.00;0.00;0.62;0.00;0.00;0.62;4.03;2.00;;;19.00;27.70;;;;;;2229756;62;20374;-62
2020/12/26 10:44:58;0.00;0.00;0.62;0.00;0.00;0.62;5.43;2.50;;;19.00;27.70;;;;;;2230062;62;20386;-61
2020/12/26 10:47:43;0.00;0.00;0.62;0.00;0.00;0.62;6.00;2.80;;;19.00;27.70;;;;;;2230323;62;20587;-61
2020/12/26 10:50:28;0.00;0.00;0.62;0.00;0.00;0.62;4.37;3.00;;;19.10;27.70;;;;;;2229655;62;20406;-61
2020/12/26 10:53:12;0.00;0.00;0.62;0.00;0.00;0.62;4.47;2.93;;;19.10;27.70;;;;;;2567436;46;20364;-61
2020/12/26 10:55:57;0.00;0.00;0.62;0.00;0.00;0.62;4.83;3.27;;;19.10;28.20;;;;;;2230481;62;20374;-61